sensor_id;sensor_type;location;lat;lon;timestamp;pressure;altitude;pressure_sealevel;temperature;humidity
22775;BME280;11554;51.106;3.684;2024-02-21T00:00:00;102323.93;;;7.73;100.0
22775;BME280;11554;51.106;3.684;2024-02-21T00:05:00;102315.97;;;7.65;100.0
22775;BME280;11554;51.106;3.684;2024-02-21T00:10:00;102319.86;;;7.56;100.0
22775;BME280;11554;51.106;3.684;2024-02-21T00:15:00;102319.06;;;7.70;100.0
22775;BME280;11554;51.106;3.684;2024-02-21T00:20:00;102308.04000000001;;;7.78;100.0
22775;BME280;11554;51.106;3.684;2024-02-21T00:25:00;102283.39;;;7.68;100.0
22775;BME280;11554;51.106;3.684;2024-02-21T00:30:00;102282.3;;;7.61;100.0
22775;BME280;11554;51.106;3.684;2024-02-21T00:35:00;102280.31;;;7.62;100.0
22775;BME280;11554;51.106;3.684;2024-02-21T00:40:00;102277.91;;;7.61;100.0
22775;BME280;11554;51.106;3.684;2024-02-21T00:45:00;102257.73000000001;;;7.61;100.0
22775;BME280;11554;51.106;3.684;2024-02-21T00:50:00;102247.43999999999;;;7.57;100.0
22775;BME280;11554;51.106;3.684;2024-02-21T00:55:00;102258.48999999999;;;7.58;100.0
22775;BME280;11554;51.106;3.684;2024-02-21T01:00:00;102250.73;;;7.55;100.0
22775;BME280;11554;51.106;3.684;2024-02-21T01:05:00;102244.51000000001;;;7.58;100.0
22775;BME280;11554;51.106;3.684;2024-02-21T01:10:00;102236.08;;;7.59;100.0
22775;BME280;11554;51.106;3.684;2024-02-21T01:15:00;102219.97;;;7.53;100.0
22775;BME280;11554;51.106;3.684;2024-02-21T01:20:00;102214.14;;;7.54;100.0
22775;BME280;11554;51.106;3.684;2024-02-21T01:25:01;102214.03;;;7.54;100.0
22775;BME280;11554;51.106;3.684;2024-02-21T01:30:00;102214.54;;;7.49;100.0
22775;BME280;11554;51.106;3.684;2024-02-21T01:35:00;102213.94;;;7.52;100.0
22775;BME280;11554;51.106;3.684;2024-02-21T01:40:00;102217.31;;;7.49;100.0
22775;BME280;11554;51.106;3.684;2024-02-21T01:45:00;102226.37;;;7.48;100.0
22775;BME280;11554;51.106;3.684;2024-02-21T01:50:00;102231.64;;;7.47;100.0
22775;BME280;11554;51.106;3.684;2024-02-21T01:55:00;102226.11;;;7.46;100.0
22775;BME280;11554;51.106;3.684;2024-02-21T02:00:00;102233.65;;;7.46;100.0
22775;BME280;11554;51.106;3.684;2024-02-21T02:05:00;102229.49;;;7.48;100.0
22775;BME280;11554;51.106;3.684;2024-02-21T02:10:00;102221.17;;;7.50;100.0
22775;BME280;11554;51.106;3.684;2024-02-21T02:15:00;102208.45000000001;;;7.51;100.0
22775;BME280;11554;51.106;3.684;2024-02-21T02:20:00;102210.90000000001;;;7.49;100.0
22775;BME280;11554;51.106;3.684;2024-02-21T02:25:00;102207.4;;;7.47;100.0
22775;BME280;11554;51.106;3.684;2024-02-21T02:30:00;102208.15;;;7.47;100.0
22775;BME280;11554;51.106;3.684;2024-02-21T02:35:00;102209.90000000001;;;7.51;100.0
22775;BME280;11554;51.106;3.684;2024-02-21T02:40:00;102192.3;;;7.56;100.0
22775;BME280;11554;51.106;3.684;2024-02-21T02:45:00;102168.73000000001;;;7.59;100.0
22775;BME280;11554;51.106;3.684;2024-02-21T02:50:00;102159.11;;;7.54;100.0
22775;BME280;11554;51.106;3.684;2024-02-21T02:55:00;102141.25;;;7.47;100.0
22775;BME280;11554;51.106;3.684;2024-02-21T03:00:00;102126.58;;;7.38;100.0
22775;BME280;11554;51.106;3.684;2024-02-21T03:05:00;102119.78;;;7.37;100.0
22775;BME280;11554;51.106;3.684;2024-02-21T03:10:00;102114.22;;;7.38;100.0
22775;BME280;11554;51.106;3.684;2024-02-21T03:15:00;102102.25;;;7.38;100.0
22775;BME280;11554;51.106;3.684;2024-02-21T03:20:00;102102.29000000001;;;7.35;100.0
22775;BME280;11554;51.106;3.684;2024-02-21T03:25:00;102100.31;;;7.38;100.0
22775;BME280;11554;51.106;3.684;2024-02-21T03:30:00;102098.29999999999;;;7.36;100.0
22775;BME280;11554;51.106;3.684;2024-02-21T03:35:00;102089.12;;;7.35;100.0
22775;BME280;11554;51.106;3.684;2024-02-21T03:40:00;102094.44;;;7.33;100.0
22775;BME280;11554;51.106;3.684;2024-02-21T03:45:00;102091.65000000001;;;7.33;100.0
22775;BME280;11554;51.106;3.684;2024-02-21T03:50:00;102087.8;;;7.34;100.0
22775;BME280;11554;51.106;3.684;2024-02-21T03:55:00;102094.06999999999;;;7.32;100.0
22775;BME280;11554;51.106;3.684;2024-02-21T04:00:00;102088.69;;;7.32;100.0
22775;BME280;11554;51.106;3.684;2024-02-21T04:05:00;102088.47;;;7.32;100.0
22775;BME280;11554;51.106;3.684;2024-02-21T04:10:00;102085.74;;;7.33;100.0
22775;BME280;11554;51.106;3.684;2024-02-21T04:15:00;102086.22;;;7.33;100.0
22775;BME280;11554;51.106;3.684;2024-02-21T04:20:02;102083.73;;;7.31;100.0
22775;BME280;11554;51.106;3.684;2024-02-21T04:25:00;102074.06;;;7.28;100.0
22775;BME280;11554;51.106;3.684;2024-02-21T04:30:00;102066.04999999999;;;7.26;100.0
22775;BME280;11554;51.106;3.684;2024-02-21T04:35:00;102060.37;;;7.23;100.0
22775;BME280;11554;51.106;3.684;2024-02-21T04:40:00;102053.3;;;7.21;100.0
22775;BME280;11554;51.106;3.684;2024-02-21T04:45:00;102040.59;;;7.20;100.0
22775;BME280;11554;51.106;3.684;2024-02-21T04:50:00;102035.51999999999;;;7.17;100.0
22775;BME280;11554;51.106;3.684;2024-02-21T04:55:00;102022.56;;;7.16;100.0
22775;BME280;11554;51.106;3.684;2024-02-21T05:00:00;102014.54;;;7.16;100.0
22775;BME280;11554;51.106;3.684;2024-02-21T05:05:00;102007.2;;;7.17;100.0
22775;BME280;11554;51.106;3.684;2024-02-21T05:10:00;102001.36;;;7.22;100.0
22775;BME280;11554;51.106;3.684;2024-02-21T05:15:00;101998.01999999999;;;7.25;100.0
22775;BME280;11554;51.106;3.684;2024-02-21T05:20:00;101989.75;;;7.29;100.0
22775;BME280;11554;51.106;3.684;2024-02-21T05:25:00;101984.11;;;7.33;100.0
22775;BME280;11554;51.106;3.684;2024-02-21T05:30:00;101975.48000000001;;;7.37;100.0
22775;BME280;11554;51.106;3.684;2024-02-21T05:35:00;101970.28;;;7.37;100.0
22775;BME280;11554;51.106;3.684;2024-02-21T05:40:00;101965.47;;;7.39;100.0
22775;BME280;11554;51.106;3.684;2024-02-21T05:45:00;101942.8;;;7.39;100.0
22775;BME280;11554;51.106;3.684;2024-02-21T05:50:00;101927.29000000001;;;7.39;100.0
22775;BME280;11554;51.106;3.684;2024-02-21T05:55:00;101926.70000000001;;;7.39;100.0
22775;BME280;11554;51.106;3.684;2024-02-21T06:00:01;101914.23;;;7.38;100.0
22775;BME280;11554;51.106;3.684;2024-02-21T06:05:00;101915.86;;;7.40;100.0
22775;BME280;11554;51.106;3.684;2024-02-21T06:10:01;101922.23;;;7.41;100.0
22775;BME280;11554;51.106;3.684;2024-02-21T06:15:00;101920.84;;;7.42;100.0
22775;BME280;11554;51.106;3.684;2024-02-21T06:20:00;101915.91;;;7.42;100.0
22775;BME280;11554;51.106;3.684;2024-02-21T06:25:00;101907.29;;;7.42;100.0
22775;BME280;11554;51.106;3.684;2024-02-21T06:30:00;101904.94;;;7.43;100.0
22775;BME280;11554;51.106;3.684;2024-02-21T06:35:00;101902.99;;;7.43;100.0
22775;BME280;11554;51.106;3.684;2024-02-21T06:40:00;101898.8;;;7.44;100.0
22775;BME280;11554;51.106;3.684;2024-02-21T06:45:00;101891.67;;;7.45;100.0
22775;BME280;11554;51.106;3.684;2024-02-21T06:50:00;101876.06;;;7.44;100.0
22775;BME280;11554;51.106;3.684;2024-02-21T06:55:00;101870.31;;;7.46;100.0
22775;BME280;11554;51.106;3.684;2024-02-21T07:05:00;101853.02;;;7.46;100.0
22775;BME280;11554;51.106;3.684;2024-02-21T07:10:00;101850.2;;;7.46;100.0
22775;BME280;11554;51.106;3.684;2024-02-21T07:15:00;101837.66;;;7.47;100.0
22775;BME280;11554;51.106;3.684;2024-02-21T07:20:00;101843.91;;;7.45;100.0
22775;BME280;11554;51.106;3.684;2024-02-21T07:25:00;101834.84;;;7.48;100.0
22775;BME280;11554;51.106;3.684;2024-02-21T07:30:00;101820.67;;;7.49;100.0
22775;BME280;11554;51.106;3.684;2024-02-21T07:35:00;101812.26000000001;;;7.52;100.0
22775;BME280;11554;51.106;3.684;2024-02-21T07:40:00;101801.84000000001;;;7.55;100.0
22775;BME280;11554;51.106;3.684;2024-02-21T07:45:00;101791.49;;;7.58;100.0
22775;BME280;11554;51.106;3.684;2024-02-21T07:50:00;101788.26000000001;;;7.61;100.0
22775;BME280;11554;51.106;3.684;2024-02-21T07:55:00;101771.44;;;7.65;100.0
22775;BME280;11554;51.106;3.684;2024-02-21T08:00:00;101758.98999999999;;;7.70;100.0
22775;BME280;11554;51.106;3.684;2024-02-21T08:05:00;101756.04;;;7.77;100.0
22775;BME280;11554;51.106;3.684;2024-02-21T08:10:00;101754.88;;;7.83;100.0
22775;BME280;11554;51.106;3.684;2024-02-21T08:15:00;101743.47;;;7.89;100.0
22775;BME280;11554;51.106;3.684;2024-02-21T08:20:00;101724.55;;;7.92;100.0
22775;BME280;11554;51.106;3.684;2024-02-21T08:25:00;101710.1;;;7.93;100.0
22775;BME280;11554;51.106;3.684;2024-02-21T08:30:00;101696.66;;;7.96;100.0
22775;BME280;11554;51.106;3.684;2024-02-21T08:35:00;101681.72;;;7.98;100.0
22775;BME280;11554;51.106;3.684;2024-02-21T08:40:00;101670.19;;;8.02;100.0
22775;BME280;11554;51.106;3.684;2024-02-21T08:45:00;101650.95;;;8.07;100.0
22775;BME280;11554;51.106;3.684;2024-02-21T08:50:01;101646.48;;;8.11;100.0
22775;BME280;11554;51.106;3.684;2024-02-21T08:55:00;101646.28;;;8.13;100.0
22775;BME280;11554;51.106;3.684;2024-02-21T09:00:00;101634.66;;;8.18;100.0
22775;BME280;11554;51.106;3.684;2024-02-21T09:05:00;101617.46;;;8.22;100.0
22775;BME280;11554;51.106;3.684;2024-02-21T09:10:00;101588.25;;;8.27;100.0
22775;BME280;11554;51.106;3.684;2024-02-21T09:15:00;101566.63;;;8.33;100.0
22775;BME280;11554;51.106;3.684;2024-02-21T09:20:00;101569.73000000001;;;8.45;100.0
22775;BME280;11554;51.106;3.684;2024-02-21T09:25:00;101555.38;;;8.49;100.0
22775;BME280;11554;51.106;3.684;2024-02-21T09:30:00;101544.26;;;8.52;100.0
22775;BME280;11554;51.106;3.684;2024-02-21T09:35:00;101536.89;;;8.57;100.0
22775;BME280;11554;51.106;3.684;2024-02-21T09:40:00;101540.34;;;8.53;100.0
22775;BME280;11554;51.106;3.684;2024-02-21T09:45:01;101533.52;;;8.56;100.0
22775;BME280;11554;51.106;3.684;2024-02-21T09:50:00;101506.42;;;8.63;100.0
22775;BME280;11554;51.106;3.684;2024-02-21T09:55:00;101510.1;;;8.76;100.0
22775;BME280;11554;51.106;3.684;2024-02-21T10:00:00;101501.33;;;8.86;100.0
22775;BME280;11554;51.106;3.684;2024-02-21T10:05:00;101485.0;;;8.88;100.0
22775;BME280;11554;51.106;3.684;2024-02-21T10:10:00;101482.0;;;9.00;100.0
22775;BME280;11554;51.106;3.684;2024-02-21T10:15:00;101476.84000000001;;;9.10;100.0
22775;BME280;11554;51.106;3.684;2024-02-21T10:20:09;101449.37999999999;;;9.13;100.0
22775;BME280;11554;51.106;3.684;2024-02-21T10:25:06;101426.67;;;9.35;100.0
22775;BME280;11554;51.106;3.684;2024-02-21T10:30:00;101416.66;;;9.47;100.0
22775;BME280;11554;51.106;3.684;2024-02-21T10:35:01;101415.19;;;9.42;100.0
22775;BME280;11554;51.106;3.684;2024-02-21T10:40:00;101413.14;;;9.33;100.0
22775;BME280;11554;51.106;3.684;2024-02-21T10:45:00;101410.31;;;9.36;100.0
22775;BME280;11554;51.106;3.684;2024-02-21T10:50:02;101393.31;;;9.31;100.0
22775;BME280;11554;51.106;3.684;2024-02-21T10:55:03;101390.7;;;9.30;100.0
22775;BME280;11554;51.106;3.684;2024-02-21T11:00:00;101375.31;;;9.28;100.0
22775;BME280;11554;51.106;3.684;2024-02-21T11:05:01;101365.66;;;9.25;100.0
22775;BME280;11554;51.106;3.684;2024-02-21T11:10:00;101350.14;;;9.23;100.0
22775;BME280;11554;51.106;3.684;2024-02-21T11:15:04;101359.47;;;9.14;100.0
22775;BME280;11554;51.106;3.684;2024-02-21T11:20:10;101355.02;;;9.16;100.0
22775;BME280;11554;51.106;3.684;2024-02-21T11:25:06;101306.34;;;9.11;100.0
22775;BME280;11554;51.106;3.684;2024-02-21T11:30:03;101309.67000000001;;;9.13;100.0
22775;BME280;11554;51.106;3.684;2024-02-21T11:35:01;101293.16;;;9.14;100.0
22775;BME280;11554;51.106;3.684;2024-02-21T11:40:00;101280.88;;;9.17;100.0
22775;BME280;11554;51.106;3.684;2024-02-21T11:45:00;101271.15;;;9.13;100.0
22775;BME280;11554;51.106;3.684;2024-02-21T11:50:00;101255.1;;;9.12;100.0
22775;BME280;11554;51.106;3.684;2024-02-21T11:55:00;101254.31999999999;;;9.20;100.0
22775;BME280;11554;51.106;3.684;2024-02-21T12:00:10;101244.73000000001;;;9.13;100.0
22775;BME280;11554;51.106;3.684;2024-02-21T12:05:00;101241.08;;;9.11;100.0
22775;BME280;11554;51.106;3.684;2024-02-21T12:10:00;101215.11;;;9.17;100.0
22775;BME280;11554;51.106;3.684;2024-02-21T12:15:00;101186.83;;;9.17;100.0
22775;BME280;11554;51.106;3.684;2024-02-21T12:20:00;101168.61;;;9.23;100.0
22775;BME280;11554;51.106;3.684;2024-02-21T12:25:02;101155.39;;;9.35;100.0
22775;BME280;11554;51.106;3.684;2024-02-21T12:30:00;101142.67;;;9.36;100.0
22775;BME280;11554;51.106;3.684;2024-02-21T12:35:00;101130.56;;;9.45;100.0
22775;BME280;11554;51.106;3.684;2024-02-21T12:40:00;101110.28;;;9.48;100.0
22775;BME280;11554;51.106;3.684;2024-02-21T12:45:01;101089.08;;;9.49;100.0
22775;BME280;11554;51.106;3.684;2024-02-21T12:50:00;101076.93000000001;;;9.52;100.0
22775;BME280;11554;51.106;3.684;2024-02-21T12:55:00;101067.81;;;9.54;100.0
22775;BME280;11554;51.106;3.684;2024-02-21T13:00:00;101065.73;;;9.52;100.0
22775;BME280;11554;51.106;3.684;2024-02-21T13:05:00;101048.65;;;9.51;100.0
22775;BME280;11554;51.106;3.684;2024-02-21T13:10:00;101037.75;;;9.44;100.0
22775;BME280;11554;51.106;3.684;2024-02-21T13:15:00;101023.04000000001;;;9.38;100.0
22775;BME280;11554;51.106;3.684;2024-02-21T13:20:00;101000.98000000001;;;9.28;100.0
22775;BME280;11554;51.106;3.684;2024-02-21T13:25:00;100978.73;;;9.25;100.0
22775;BME280;11554;51.106;3.684;2024-02-21T13:30:00;100952.08;;;9.16;100.0
22775;BME280;11554;51.106;3.684;2024-02-21T13:35:00;100949.29;;;9.19;100.0
22775;BME280;11554;51.106;3.684;2024-02-21T13:40:00;100928.03;;;9.15;100.0
22775;BME280;11554;51.106;3.684;2024-02-21T13:45:00;100907.75;;;9.19;100.0
22775;BME280;11554;51.106;3.684;2024-02-21T13:50:00;100897.24;;;9.21;100.0
22775;BME280;11554;51.106;3.684;2024-02-21T13:55:00;100876.89;;;9.17;100.0
22775;BME280;11554;51.106;3.684;2024-02-21T14:00:00;100856.19;;;9.12;100.0
22775;BME280;11554;51.106;3.684;2024-02-21T14:05:00;100842.22;;;9.04;100.0
22775;BME280;11554;51.106;3.684;2024-02-21T14:10:00;100828.98;;;8.96;100.0
22775;BME280;11554;51.106;3.684;2024-02-21T14:15:00;100805.35;;;8.91;100.0
22775;BME280;11554;51.106;3.684;2024-02-21T14:20:00;100783.6;;;8.84;100.0
22775;BME280;11554;51.106;3.684;2024-02-21T14:25:00;100776.87;;;8.82;100.0
22775;BME280;11554;51.106;3.684;2024-02-21T14:30:00;100782.3;;;8.78;100.0
22775;BME280;11554;51.106;3.684;2024-02-21T14:35:00;100763.69;;;8.75;100.0
22775;BME280;11554;51.106;3.684;2024-02-21T14:40:00;100748.79;;;8.72;100.0
22775;BME280;11554;51.106;3.684;2024-02-21T14:45:00;100739.36;;;8.71;100.0
22775;BME280;11554;51.106;3.684;2024-02-21T14:50:01;100733.94;;;8.66;100.0
22775;BME280;11554;51.106;3.684;2024-02-21T14:55:00;100715.06000000001;;;8.67;100.0
22775;BME280;11554;51.106;3.684;2024-02-21T15:00:00;100697.49;;;8.64;100.0
22775;BME280;11554;51.106;3.684;2024-02-21T15:05:00;100691.71;;;8.62;100.0
22775;BME280;11554;51.106;3.684;2024-02-21T15:10:00;100679.35;;;8.60;100.0
22775;BME280;11554;51.106;3.684;2024-02-21T15:15:00;100670.42;;;8.56;100.0
22775;BME280;11554;51.106;3.684;2024-02-21T15:20:00;100660.40000000001;;;8.55;100.0
22775;BME280;11554;51.106;3.684;2024-02-21T15:25:00;100655.61;;;8.55;100.0
22775;BME280;11554;51.106;3.684;2024-02-21T15:30:01;100637.78;;;8.55;100.0
22775;BME280;11554;51.106;3.684;2024-02-21T15:35:00;100625.8;;;8.56;100.0
22775;BME280;11554;51.106;3.684;2024-02-21T15:40:00;100617.19;;;8.56;100.0
22775;BME280;11554;51.106;3.684;2024-02-21T15:45:00;100611.37999999999;;;8.55;100.0
22775;BME280;11554;51.106;3.684;2024-02-21T15:50:00;100602.58;;;8.51;100.0
22775;BME280;11554;51.106;3.684;2024-02-21T15:55:00;100591.53;;;8.50;100.0
22775;BME280;11554;51.106;3.684;2024-02-21T16:00:00;100599.32;;;8.48;100.0
22775;BME280;11554;51.106;3.684;2024-02-21T16:05:00;100573.06999999999;;;8.47;100.0
22775;BME280;11554;51.106;3.684;2024-02-21T16:10:00;100565.52;;;8.47;100.0
22775;BME280;11554;51.106;3.684;2024-02-21T16:15:00;100566.78;;;8.47;100.0
22775;BME280;11554;51.106;3.684;2024-02-21T16:20:01;100549.37999999999;;;8.46;100.0
22775;BME280;11554;51.106;3.684;2024-02-21T16:25:00;100554.52;;;8.46;100.0
22775;BME280;11554;51.106;3.684;2024-02-21T16:30:00;100544.42;;;8.46;100.0
22775;BME280;11554;51.106;3.684;2024-02-21T16:35:00;100537.83;;;8.45;100.0
22775;BME280;11554;51.106;3.684;2024-02-21T16:40:00;100530.64;;;8.48;100.0
22775;BME280;11554;51.106;3.684;2024-02-21T16:45:00;100527.15;;;8.50;100.0
22775;BME280;11554;51.106;3.684;2024-02-21T16:50:00;100515.27;;;8.49;100.0
22775;BME280;11554;51.106;3.684;2024-02-21T16:55:00;100500.72;;;8.50;100.0
22775;BME280;11554;51.106;3.684;2024-02-21T17:00:00;100486.18000000001;;;8.48;100.0
22775;BME280;11554;51.106;3.684;2024-02-21T17:05:00;100480.31;;;8.50;100.0
22775;BME280;11554;51.106;3.684;2024-02-21T17:10:00;100471.91;;;8.51;100.0
22775;BME280;11554;51.106;3.684;2024-02-21T17:15:00;100459.12;;;8.50;100.0
22775;BME280;11554;51.106;3.684;2024-02-21T17:20:00;100448.8;;;8.50;100.0
22775;BME280;11554;51.106;3.684;2024-02-21T17:25:00;100442.13;;;8.50;100.0
22775;BME280;11554;51.106;3.684;2024-02-21T17:30:00;100434.75;;;8.53;100.0
22775;BME280;11554;51.106;3.684;2024-02-21T17:35:00;100437.18000000001;;;8.54;100.0
22775;BME280;11554;51.106;3.684;2024-02-21T17:40:00;100430.76;;;8.55;100.0
22775;BME280;11554;51.106;3.684;2024-02-21T17:45:00;100418.8;;;8.57;100.0
22775;BME280;11554;51.106;3.684;2024-02-21T17:50:00;100408.92;;;8.57;100.0
22775;BME280;11554;51.106;3.684;2024-02-21T17:55:00;100404.86;;;8.59;100.0
22775;BME280;11554;51.106;3.684;2024-02-21T18:00:00;100386.32;;;8.59;100.0
22775;BME280;11554;51.106;3.684;2024-02-21T18:05:00;100380.1;;;8.60;100.0
22775;BME280;11554;51.106;3.684;2024-02-21T18:10:00;100374.91;;;8.60;100.0
22775;BME280;11554;51.106;3.684;2024-02-21T18:15:00;100371.88;;;8.61;100.0
22775;BME280;11554;51.106;3.684;2024-02-21T18:20:00;100362.42;;;8.62;100.0
22775;BME280;11554;51.106;3.684;2024-02-21T18:25:00;100354.44;;;8.63;100.0
22775;BME280;11554;51.106;3.684;2024-02-21T18:30:00;100345.11;;;8.65;100.0
22775;BME280;11554;51.106;3.684;2024-02-21T18:35:00;100340.72;;;8.65;100.0
22775;BME280;11554;51.106;3.684;2024-02-21T18:40:00;100352.87;;;8.66;100.0
22775;BME280;11554;51.106;3.684;2024-02-21T18:45:00;100347.91;;;8.68;100.0
22775;BME280;11554;51.106;3.684;2024-02-21T18:50:00;100336.69;;;8.69;100.0
22775;BME280;11554;51.106;3.684;2024-02-21T18:55:00;100330.98;;;8.70;100.0
22775;BME280;11554;51.106;3.684;2024-02-21T19:00:00;100321.36;;;8.72;100.0
22775;BME280;11554;51.106;3.684;2024-02-21T19:05:00;100308.64;;;8.73;100.0
22775;BME280;11554;51.106;3.684;2024-02-21T19:10:00;100302.29000000001;;;8.73;100.0
22775;BME280;11554;51.106;3.684;2024-02-21T19:15:00;100291.47;;;8.75;100.0
22775;BME280;11554;51.106;3.684;2024-02-21T19:20:00;100282.9;;;8.74;100.0
22775;BME280;11554;51.106;3.684;2024-02-21T19:25:00;100281.69;;;8.75;100.0
22775;BME280;11554;51.106;3.684;2024-02-21T19:30:00;100279.06;;;8.77;100.0
22775;BME280;11554;51.106;3.684;2024-02-21T19:35:00;100269.47;;;8.79;100.0
22775;BME280;11554;51.106;3.684;2024-02-21T19:40:00;100264.12;;;8.81;100.0
22775;BME280;11554;51.106;3.684;2024-02-21T19:45:00;100253.03;;;8.85;100.0
22775;BME280;11554;51.106;3.684;2024-02-21T19:50:00;100261.91;;;8.89;100.0
22775;BME280;11554;51.106;3.684;2024-02-21T19:55:00;100253.53;;;8.92;100.0
22775;BME280;11554;51.106;3.684;2024-02-21T20:00:00;100244.19;;;8.93;100.0
22775;BME280;11554;51.106;3.684;2024-02-21T20:05:00;100245.87;;;8.96;100.0
22775;BME280;11554;51.106;3.684;2024-02-21T20:10:00;100241.28;;;8.98;100.0
22775;BME280;11554;51.106;3.684;2024-02-21T20:15:00;100233.97;;;8.98;100.0
22775;BME280;11554;51.106;3.684;2024-02-21T20:20:00;100223.13;;;8.99;100.0
22775;BME280;11554;51.106;3.684;2024-02-21T20:25:00;100221.14;;;9.00;100.0
22775;BME280;11554;51.106;3.684;2024-02-21T20:30:00;100226.17;;;9.01;100.0
22775;BME280;11554;51.106;3.684;2024-02-21T20:35:00;100218.95;;;9.02;100.0
22775;BME280;11554;51.106;3.684;2024-02-21T20:40:00;100219.56;;;9.02;100.0
22775;BME280;11554;51.106;3.684;2024-02-21T20:45:00;100230.7;;;9.07;100.0
22775;BME280;11554;51.106;3.684;2024-02-21T20:50:00;100233.72;;;9.08;100.0
22775;BME280;11554;51.106;3.684;2024-02-21T20:55:00;100212.92;;;9.09;100.0
22775;BME280;11554;51.106;3.684;2024-02-21T21:00:00;100214.37;;;9.11;100.0
22775;BME280;11554;51.106;3.684;2024-02-21T21:05:00;100209.47;;;9.13;100.0
22775;BME280;11554;51.106;3.684;2024-02-21T21:10:00;100205.55;;;9.14;100.0
22775;BME280;11554;51.106;3.684;2024-02-21T21:15:00;100203.74;;;9.15;100.0
22775;BME280;11554;51.106;3.684;2024-02-21T21:20:00;100201.34000000001;;;9.16;100.0
22775;BME280;11554;51.106;3.684;2024-02-21T21:25:00;100197.11;;;9.16;100.0
22775;BME280;11554;51.106;3.684;2024-02-21T21:30:00;100178.92;;;9.18;100.0
22775;BME280;11554;51.106;3.684;2024-02-21T21:35:00;100169.51000000001;;;9.18;100.0
22775;BME280;11554;51.106;3.684;2024-02-21T21:40:00;100166.52;;;9.21;100.0
22775;BME280;11554;51.106;3.684;2024-02-21T21:45:00;100157.47;;;9.21;100.0
22775;BME280;11554;51.106;3.684;2024-02-21T21:50:00;100154.92;;;9.24;100.0
22775;BME280;11554;51.106;3.684;2024-02-21T21:55:00;100149.62000000001;;;9.27;100.0
22775;BME280;11554;51.106;3.684;2024-02-21T22:00:00;100150.53;;;9.29;100.0
22775;BME280;11554;51.106;3.684;2024-02-21T22:05:00;100147.03;;;9.30;100.0
22775;BME280;11554;51.106;3.684;2024-02-21T22:10:00;100153.28;;;9.31;100.0
22775;BME280;11554;51.106;3.684;2024-02-21T22:15:00;100145.06999999999;;;9.35;100.0
22775;BME280;11554;51.106;3.684;2024-02-21T22:20:00;100133.56999999999;;;9.37;100.0
22775;BME280;11554;51.106;3.684;2024-02-21T22:25:00;100136.31;;;9.40;100.0
22775;BME280;11554;51.106;3.684;2024-02-21T22:30:00;100134.27;;;9.40;100.0
22775;BME280;11554;51.106;3.684;2024-02-21T22:35:00;100129.78;;;9.41;100.0
22775;BME280;11554;51.106;3.684;2024-02-21T22:40:00;100122.92;;;9.44;100.0
22775;BME280;11554;51.106;3.684;2024-02-21T22:45:00;100116.78;;;9.46;100.0
22775;BME280;11554;51.106;3.684;2024-02-21T22:50:00;100122.49;;;9.46;100.0
22775;BME280;11554;51.106;3.684;2024-02-21T22:55:00;100120.31;;;9.49;100.0
22775;BME280;11554;51.106;3.684;2024-02-21T23:00:00;100128.61;;;9.50;100.0
22775;BME280;11554;51.106;3.684;2024-02-21T23:05:00;100132.79;;;9.52;100.0
22775;BME280;11554;51.106;3.684;2024-02-21T23:10:00;100128.79000000001;;;9.54;100.0
22775;BME280;11554;51.106;3.684;2024-02-21T23:15:00;100128.53;;;9.56;100.0
22775;BME280;11554;51.106;3.684;2024-02-21T23:20:00;100140.56;;;9.58;100.0
22775;BME280;11554;51.106;3.684;2024-02-21T23:25:00;100127.69;;;9.58;100.0
22775;BME280;11554;51.106;3.684;2024-02-21T23:30:00;100125.58;;;9.62;100.0
22775;BME280;11554;51.106;3.684;2024-02-21T23:35:00;100125.92;;;9.63;100.0
22775;BME280;11554;51.106;3.684;2024-02-21T23:40:00;100122.53;;;9.67;100.0
22775;BME280;11554;51.106;3.684;2024-02-21T23:45:00;100117.21;;;9.68;100.0
22775;BME280;11554;51.106;3.684;2024-02-21T23:50:00;100126.93000000001;;;9.71;100.0
22775;BME280;11554;51.106;3.684;2024-02-21T23:55:00;100127.31;;;9.74;100.0
